Samantha — WDJ7141 — position and weather

sailwx.info

Track history (hours):
 
Tides and Currents Weather Stations Pressure Air Temp Water Temp Dewpoint Dewpoint Depression Visibility Wind Speed Wind Dir Waves Ship Positions

Samantha

Owner: Rhodes, Dan W, San Pedro, CA. More information available from US FCC via Universal Licensing System.

Last reported at 2018-Aug-12 02:41 UTC. Time now 2018-Aug-14 13:48 UTC.
Position N 33°43' W 118°17'.

Length 16 m.

Type: Sailing vessel. MMSI: 368003740.

Date/timePositionNaut miles runAvg speedWind from/ knotsBaromVisibWave heightAir tempDewpointWater temp
2018-Aug-12 02:41N 33°43' W 118°17'0 0.1
2018-Aug-12 02:30N 33°43' W 118°17'1 1.3
2018-Aug-12 01:53N 33°43' W 118°16'2 6.2
2018-Aug-12 01:29N 33°43' W 118°13'2 4.9
2018-Aug-12 01:00N 33°44' W 118°10'1 2.0
2018-Aug-12 00:30N 33°45' W 118°11'2 3.8
2018-Aug-12 00:00N 33°44' W 118°12'3 5.6
2018-Aug-11 23:29N 33°42' W 118°15'5 3.6
2018-Aug-11 22:02N 33°37' W 118°15'1 4.7
2018-Aug-11 21:48N 33°38' W 118°15'2 4.5
2018-Aug-11 21:24N 33°40' W 118°15'2 4.5
2018-Aug-11 20:59N 33°41' W 118°15'  
Track history (hours):
 
Tides and Currents Weather Stations Pressure Air Temp Water Temp Dewpoint Dewpoint Depression Visibility Wind Speed Wind Dir Waves Ship Positions

Samantha

Owner: Rhodes, Dan W, San Pedro, CA. More information available from US FCC via Universal Licensing System.

Last reported at 2018-Aug-12 02:41 UTC. Time now 2018-Aug-14 13:48 UTC.
Position N 33°43' W 118°17'.

Length 16 m.

Type: Sailing vessel. MMSI: 368003740.

Date/timePositionNaut miles runAvg speedWind from/ knotsBaromVisibWave heightAir tempDewpointWater temp
2018-Aug-12 02:41N 33°43' W 118°17'0 0.1
2018-Aug-12 02:30N 33°43' W 118°17'1 1.3
2018-Aug-12 01:53N 33°43' W 118°16'2 6.2
2018-Aug-12 01:29N 33°43' W 118°13'2 4.9
2018-Aug-12 01:00N 33°44' W 118°10'1 2.0
2018-Aug-12 00:30N 33°45' W 118°11'2 3.8
2018-Aug-12 00:00N 33°44' W 118°12'3 5.6
2018-Aug-11 23:29N 33°42' W 118°15'5 3.6
2018-Aug-11 22:02N 33°37' W 118°15'1 4.7
2018-Aug-11 21:48N 33°38' W 118°15'2 4.5
2018-Aug-11 21:24N 33°40' W 118°15'2 4.5
2018-Aug-11 20:59N 33°41' W 118°15'  

Dump ship's entire track history